Time;durP1;ratioP1;P1;durP2;ratioP2;P2;SDS_P1;SDS_P2;PMS_P1;PMS_P2;Temp;Humidity;BMP_temperature;BMP_pressure;BME280_temperature;BME280_humidity;BME280_pressure;Samples;Min_cycle;Max_cycle;Signal;HPM_P1;HPM_P2
2023/06/22 00:02:29;;;;;;;7.70;4.40;;;10.90;99.90;;;;;;5009284;28;20254;-78
2023/06/22 00:05:02;;;;;;;8.45;4.57;;;11.00;99.90;;;;;;5015251;28;20689;-78
2023/06/22 00:07:33;;;;;;;6.47;4.13;;;11.00;99.90;;;;;;5014878;28;20754;-78
2023/06/22 00:10:04;;;;;;;7.55;5.07;;;11.10;99.90;;;;;;5004840;28;20192;-78
2023/06/22 00:12:35;;;;;;;9.95;4.60;;;11.20;99.90;;;;;;4995320;28;20710;-78
2023/06/22 00:15:07;;;;;;;7.22;4.38;;;11.20;99.90;;;;;;4997521;28;20195;-79
2023/06/22 00:17:38;;;;;;;9.45;4.70;;;11.30;99.90;;;;;;5012244;28;20222;-79
2023/06/22 00:20:12;;;;;;;7.38;4.05;;;11.40;99.90;;;;;;5009938;28;20591;-78
2023/06/22 00:22:43;;;;;;;8.38;4.05;;;11.50;99.90;;;;;;5014062;28;20218;-77
2023/06/22 00:25:14;;;;;;;11.23;5.22;;;11.60;99.90;;;;;;5014328;28;20206;-78
2023/06/22 00:27:45;;;;;;;9.15;4.60;;;11.70;99.90;;;;;;5014488;28;20197;-78
2023/06/22 00:30:17;;;;;;;8.70;3.78;;;11.80;99.90;;;;;;5014977;28;20202;-78
2023/06/22 00:32:49;;;;;;;10.38;4.63;;;11.90;99.90;;;;;;5005266;28;20215;-78
2023/06/22 00:35:22;;;;;;;10.30;4.63;;;12.00;99.90;;;;;;5001474;28;20202;-78
2023/06/22 00:38:00;;;;;;;9.00;4.47;;;12.20;99.90;;;;;;5008385;28;20552;-78
2023/06/22 00:40:31;;;;;;;7.60;4.70;;;12.30;99.90;;;;;;5011475;28;20230;-78
2023/06/22 00:43:03;;;;;;;8.82;4.75;;;12.40;99.90;;;;;;5009206;28;20195;-79
2023/06/22 00:45:34;;;;;;;9.07;4.72;;;12.50;99.90;;;;;;5012611;28;20214;-79
2023/06/22 00:48:05;;;;;;;7.57;4.20;;;12.60;99.90;;;;;;5013458;28;20205;-79
2023/06/22 00:50:39;;;;;;;7.85;4.50;;;12.70;99.90;;;;;;5010357;28;20195;-79
2023/06/22 00:53:11;;;;;;;7.50;4.53;;;12.80;99.90;;;;;;5013011;28;20654;-79
2023/06/22 00:55:46;;;;;;;7.90;4.28;;;12.80;99.90;;;;;;5012611;28;20219;-79
2023/06/22 00:58:18;;;;;;;6.80;4.10;;;12.80;99.90;;;;;;5011763;28;20198;-80
2023/06/22 01:00:49;;;;;;;10.18;3.97;;;12.90;99.90;;;;;;5012053;28;20203;-77
2023/06/22 01:03:20;;;;;;;7.22;4.13;;;12.90;99.90;;;;;;5013063;28;20202;-80
2023/06/22 01:05:54;;;;;;;10.75;4.50;;;12.90;99.90;;;;;;5012395;28;20207;-78
2023/06/22 01:08:38;;;;;;;11.98;4.43;;;12.90;99.90;;;;;;5011544;28;20202;-80
2023/06/22 01:11:18;;;;;;;8.93;4.30;;;12.90;99.90;;;;;;5002115;28;20662;-81
2023/06/22 01:13:56;;;;;;;10.50;3.83;;;13.00;99.90;;;;;;5013105;28;20281;-78
2023/06/22 01:16:29;;;;;;;7.80;3.92;;;13.10;99.90;;;;;;5011317;28;20218;-77
2023/06/22 01:19:12;;;;;;;10.50;4.18;;;13.30;99.90;;;;;;5011160;28;20230;-78
2023/06/22 01:21:46;;;;;;;8.70;4.20;;;13.40;99.90;;;;;;5010673;28;20199;-78
2023/06/22 01:24:28;;;;;;;7.35;4.00;;;13.50;99.90;;;;;;5008218;28;20202;-78
2023/06/22 01:27:10;;;;;;;8.55;4.82;;;13.60;99.90;;;;;;5007481;28;20205;-77
2023/06/22 01:29:44;;;;;;;9.20;4.22;;;13.60;99.90;;;;;;5012218;28;20199;-77
2023/06/22 01:32:17;;;;;;;7.20;3.53;;;13.70;99.90;;;;;;5012569;28;20697;-79
2023/06/22 01:34:50;;;;;;;7.50;3.67;;;13.70;99.90;;;;;;5011843;28;20199;-78
2023/06/22 01:37:21;;;;;;;5.95;3.40;;;13.80;99.90;;;;;;5009254;28;20214;-78
2023/06/22 01:39:53;;;;;;;7.28;3.33;;;13.80;99.90;;;;;;5011143;28;20217;-78
2023/06/22 01:42:26;;;;;;;4.60;3.35;;;13.90;99.90;;;;;;5010543;28;20681;-78
2023/06/22 01:45:01;;;;;;;5.60;3.70;;;13.90;99.90;;;;;;5012155;28;20252;-78
2023/06/22 01:47:32;;;;;;;8.80;3.95;;;13.90;99.90;;;;;;5010967;28;20194;-78
2023/06/22 01:50:03;;;;;;;7.90;3.75;;;13.90;99.90;;;;;;5012783;28;20203;-79
2023/06/22 01:52:34;;;;;;;7.70;4.00;;;14.00;99.90;;;;;;5007828;28;20198;-81
2023/06/22 01:55:07;;;;;;;7.40;3.70;;;14.00;99.90;;;;;;5010011;28;20198;-79
2023/06/22 01:57:39;;;;;;;8.52;3.90;;;14.00;99.90;;;;;;5008197;28;20640;-80
2023/06/22 02:00:18;;;;;;;14.07;3.60;;;14.00;99.90;;;;;;5001031;28;20205;-79
2023/06/22 02:02:59;;;;;;;6.35;3.35;;;14.00;99.90;;;;;;5009730;28;20199;-79
2023/06/22 02:05:34;;;;;;;9.65;4.38;;;14.00;99.90;;;;;;5005896;28;20223;-79
2023/06/22 02:08:10;;;;;;;7.07;3.60;;;14.10;99.90;;;;;;4995105;28;20214;-78
2023/06/22 02:10:43;;;;;;;10.40;4.65;;;14.10;99.90;;;;;;4995361;28;20191;-78
2023/06/22 02:13:15;;;;;;;12.50;4.47;;;14.20;99.90;;;;;;5007731;28;20195;-78
2023/06/22 02:15:49;;;;;;;9.80;4.20;;;14.20;99.90;;;;;;5011444;28;20203;-79
2023/06/22 02:18:20;;;;;;;8.27;4.10;;;14.30;99.90;;;;;;5012799;28;20584;-78
2023/06/22 02:20:52;;;;;;;7.75;4.20;;;14.40;99.90;;;;;;5013048;28;20298;-79
2023/06/22 02:23:23;;;;;;;12.82;4.40;;;14.40;99.90;;;;;;5013858;28;20202;-78
2023/06/22 02:25:54;;;;;;;8.23;3.80;;;14.50;99.90;;;;;;5010001;28;20538;-79
2023/06/22 02:28:25;;;;;;;8.68;3.60;;;14.50;99.90;;;;;;4993734;28;20199;-79
2023/06/22 02:30:58;;;;;;;7.60;3.03;;;14.50;99.90;;;;;;4993581;28;20562;-80
2023/06/22 02:33:29;;;;;;;7.60;3.00;;;14.50;99.90;;;;;;5000354;28;20214;-79
2023/06/22 02:36:04;;;;;;;4.78;2.95;;;14.50;99.90;;;;;;5005580;28;20318;-79
2023/06/22 02:38:36;;;;;;;4.47;2.50;;;14.50;99.90;;;;;;5006460;28;20666;-79
2023/06/22 02:41:07;;;;;;;4.28;2.38;;;14.40;99.90;;;;;;5009370;28;20222;-80
2023/06/22 02:43:38;;;;;;;7.50;2.78;;;14.40;99.90;;;;;;5008562;28;20192;-80
2023/06/22 02:46:11;;;;;;;6.95;2.60;;;14.40;99.90;;;;;;5012258;28;20203;-80
2023/06/22 02:48:42;;;;;;;7.40;2.65;;;14.40;99.90;;;;;;5011598;28;20207;-80
2023/06/22 02:51:14;;;;;;;8.52;2.33;;;14.50;99.90;;;;;;5009896;28;20563;-80
2023/06/22 02:53:47;;;;;;;6.15;2.72;;;14.50;99.90;;;;;;5009462;28;20282;-80
2023/06/22 02:56:18;;;;;;;5.65;2.53;;;14.60;99.90;;;;;;5002510;28;20230;-80
2023/06/22 02:58:49;;;;;;;4.93;2.10;;;14.70;99.90;;;;;;5021231;28;20209;-80
2023/06/22 03:01:24;;;;;;;9.50;2.40;;;14.70;99.90;;;;;;5003909;28;20199;-80
2023/06/22 03:03:55;;;;;;;8.95;3.03;;;14.70;99.90;;;;;;5009113;28;20670;-80
2023/06/22 03:06:28;;;;;;;3.08;1.90;;;14.80;99.90;;;;;;5015475;28;20211;-80
2023/06/22 03:09:03;;;;;;;5.22;2.00;;;14.80;99.90;;;;;;5016134;28;20273;-80
2023/06/22 03:11:35;;;;;;;3.13;1.67;;;14.80;99.90;;;;;;5014263;28;20195;-80
2023/06/22 03:14:06;;;;;;;3.95;1.90;;;14.80;99.90;;;;;;5015816;28;20199;-80
2023/06/22 03:16:40;;;;;;;3.35;2.05;;;14.80;99.90;;;;;;5016294;28;20222;-80
2023/06/22 03:19:11;;;;;;;5.07;2.00;;;14.80;99.90;;;;;;5015519;28;20243;-80
2023/06/22 03:21:43;;;;;;;4.53;2.00;;;14.70;99.90;;;;;;5015047;28;20191;-80
2023/06/22 03:24:14;;;;;;;2.92;1.90;;;14.70;99.90;;;;;;5009983;28;20202;-80
2023/06/22 03:26:46;;;;;;;3.13;1.98;;;14.70;99.90;;;;;;5015008;28;20623;-79
2023/06/22 03:29:17;;;;;;;3.85;1.77;;;14.70;99.90;;;;;;5017639;28;20203;-78
2023/06/22 03:31:50;;;;;;;4.22;2.03;;;14.60;99.90;;;;;;5015318;28;20195;-79
2023/06/22 03:34:21;;;;;;;2.60;1.83;;;14.60;99.90;;;;;;5015462;28;20262;-79
2023/06/22 03:36:53;;;;;;;3.50;2.38;;;14.60;99.90;;;;;;5014841;28;20226;-79
2023/06/22 03:39:24;;;;;;;5.75;1.90;;;14.50;99.90;;;;;;5015723;28;20195;-79
2023/06/22 03:41:55;;;;;;;4.30;1.50;;;14.50;99.90;;;;;;5015566;28;20191;-78
2023/06/22 03:44:26;;;;;;;6.43;2.28;;;14.50;99.90;;;;;;5014771;28;20202;-79
2023/06/22 03:46:59;;;;;;;8.48;2.20;;;14.40;99.90;;;;;;5015507;28;20210;-79
2023/06/22 03:49:30;;;;;;;4.95;2.20;;;14.40;99.90;;;;;;5015304;28;20206;-79
2023/06/22 03:52:01;;;;;;;8.43;2.38;;;14.40;99.90;;;;;;5013307;28;20206;-79
2023/06/22 03:54:32;;;;;;;5.32;2.03;;;14.40;99.90;;;;;;5014542;28;20241;-79
2023/06/22 03:57:04;;;;;;;5.30;1.92;;;14.40;99.90;;;;;;5015274;28;20673;-78
2023/06/22 03:59:35;;;;;;;6.55;2.00;;;14.40;99.90;;;;;;5014828;28;20233;-78
2023/06/22 04:02:08;;;;;;;5.28;2.25;;;14.40;99.90;;;;;;5014459;28;20207;-79
2023/06/22 04:04:39;;;;;;;5.22;1.88;;;14.40;99.90;;;;;;5015586;28;20200;-79
2023/06/22 04:07:10;;;;;;;7.10;2.20;;;14.40;99.90;;;;;;5014516;28;20191;-79
2023/06/22 04:09:41;;;;;;;5.40;2.00;;;14.30;99.90;;;;;;5015312;28;20190;-78
2023/06/22 04:12:13;;;;;;;5.45;2.20;;;14.30;99.90;;;;;;5014010;28;20203;-79
2023/06/22 04:14:44;;;;;;;5.07;1.73;;;14.30;99.90;;;;;;5014566;28;20203;-78
2023/06/22 04:17:17;;;;;;;5.30;2.00;;;14.30;99.90;;;;;;5014672;28;20609;-79
2023/06/22 04:19:48;;;;;;;3.55;1.98;;;14.30;99.90;;;;;;5013928;28;20232;-78
2023/06/22 04:22:19;;;;;;;3.80;1.98;;;14.30;99.90;;;;;;5013041;28;20218;-79
2023/06/22 04:24:52;;;;;;;3.78;1.80;;;14.30;99.90;;;;;;5014041;28;20659;-79
2023/06/22 04:27:23;;;;;;;6.18;2.00;;;14.20;99.90;;;;;;5014788;28;20234;-79
2023/06/22 04:29:54;;;;;;;5.20;2.15;;;14.20;99.90;;;;;;5014716;28;20191;-78
2023/06/22 04:32:27;;;;;;;4.07;2.10;;;14.20;99.90;;;;;;5012647;28;20214;-79
2023/06/22 04:35:00;;;;;;;6.85;2.60;;;14.20;99.90;;;;;;5014708;28;20198;-79
2023/06/22 04:37:31;;;;;;;6.90;2.35;;;14.20;99.90;;;;;;5012495;28;20281;-79
2023/06/22 04:40:03;;;;;;;4.00;1.77;;;14.20;99.90;;;;;;5012693;28;20201;-79
2023/06/22 04:42:36;;;;;;;5.93;2.28;;;14.20;99.90;;;;;;5012251;28;20217;-78
2023/06/22 04:45:09;;;;;;;5.93;2.28;;;14.30;99.90;;;;;;5014820;28;20195;-79
2023/06/22 04:47:42;;;;;;;4.97;2.03;;;14.20;99.90;;;;;;5014225;28;20712;-79
2023/06/22 04:50:13;;;;;;;4.85;2.20;;;14.30;99.90;;;;;;5014387;28;20194;-79
2023/06/22 04:52:45;;;;;;;4.47;1.83;;;14.20;99.90;;;;;;5014550;28;20639;-78
2023/06/22 04:55:18;;;;;;;7.85;2.03;;;14.20;99.90;;;;;;5014390;28;20593;-79
2023/06/22 04:57:50;;;;;;;5.43;1.98;;;14.20;99.90;;;;;;5013268;28;20255;-79
2023/06/22 05:00:22;;;;;;;5.97;2.33;;;14.20;99.90;;;;;;5012185;28;20655;-79
2023/06/22 05:02:56;;;;;;;7.90;2.10;;;14.20;99.90;;;;;;5014192;28;20642;-79
2023/06/22 05:05:28;;;;;;;5.57;1.92;;;14.20;99.90;;;;;;5010558;28;20234;-78
2023/06/22 05:08:01;;;;;;;7.95;2.13;;;14.20;99.90;;;;;;5014082;28;20203;-79
2023/06/22 05:10:32;;;;;;;4.25;1.92;;;14.20;99.90;;;;;;5013043;28;20203;-78
2023/06/22 05:13:03;;;;;;;4.32;2.10;;;14.10;99.90;;;;;;5014040;28;20210;-78
2023/06/22 05:15:39;;;;;;;5.90;1.88;;;14.10;99.90;;;;;;5013760;28;20195;-79
2023/06/22 05:18:14;;;;;;;5.82;2.10;;;14.10;99.90;;;;;;5013756;28;20234;-79
2023/06/22 05:20:45;;;;;;;4.78;2.28;;;14.10;99.90;;;;;;5014135;28;20234;-79
2023/06/22 05:23:16;;;;;;;9.65;2.33;;;14.10;99.90;;;;;;5012873;28;20195;-78
2023/06/22 05:25:47;;;;;;;9.35;1.90;;;14.00;99.90;;;;;;5013856;28;20202;-77
2023/06/22 05:28:22;;;;;;;2.83;1.50;;;14.00;99.90;;;;;;5012885;28;20575;-78
2023/06/22 05:30:53;;;;;;;3.97;1.65;;;14.00;99.90;;;;;;5012756;28;20257;-78
2023/06/22 05:33:27;;;;;;;6.65;1.90;;;14.10;99.90;;;;;;5012637;28;20562;-77
2023/06/22 05:35:58;;;;;;;5.15;1.85;;;14.10;99.90;;;;;;5013649;28;20726;-77
2023/06/22 05:38:29;;;;;;;3.92;1.95;;;14.10;99.90;;;;;;5012425;28;20223;-78
2023/06/22 05:41:00;;;;;;;5.03;1.90;;;14.10;99.90;;;;;;5012832;28;20203;-77
2023/06/22 05:43:31;;;;;;;7.70;1.90;;;14.10;99.90;;;;;;5013646;28;20195;-77
2023/06/22 05:46:03;;;;;;;4.95;2.10;;;14.10;99.90;;;;;;5012946;28;20199;-77
2023/06/22 05:48:36;;;;;;;5.22;2.00;;;14.00;99.90;;;;;;5013554;28;20191;-77
2023/06/22 05:51:07;;;;;;;4.95;1.90;;;14.00;99.90;;;;;;5012677;28;20549;-77
2023/06/22 05:53:39;;;;;;;4.57;2.10;;;14.00;99.90;;;;;;5013469;28;20190;-77
2023/06/22 05:56:10;;;;;;;5.38;2.10;;;13.90;99.90;;;;;;5013448;28;20195;-77
2023/06/22 05:58:41;;;;;;;4.93;1.73;;;13.90;99.90;;;;;;5013454;28;20698;-78
2023/06/22 06:01:12;;;;;;;5.65;2.00;;;13.80;99.90;;;;;;5013447;28;20199;-77
2023/06/22 06:03:45;;;;;;;5.32;2.00;;;13.70;99.90;;;;;;5013427;28;20187;-78
2023/06/22 06:06:16;;;;;;;5.05;2.20;;;13.70;99.90;;;;;;5011883;28;20194;-78
2023/06/22 06:08:47;;;;;;;5.65;2.75;;;13.60;99.90;;;;;;5009761;28;20203;-78
2023/06/22 06:11:19;;;;;;;10.35;3.35;;;13.50;99.90;;;;;;5011931;28;20191;-77
2023/06/22 06:13:50;;;;;;;6.00;2.90;;;13.50;99.90;;;;;;4993618;28;20195;-76
2023/06/22 06:16:21;;;;;;;8.88;3.95;;;13.40;99.90;;;;;;4993735;28;20290;-77
2023/06/22 06:18:55;;;;;;;10.88;4.22;;;13.30;99.90;;;;;;4993210;28;20243;-76
2023/06/22 06:21:26;;;;;;;7.95;4.25;;;13.10;99.90;;;;;;5010311;28;20198;-77
2023/06/22 06:23:58;;;;;;;10.23;4.50;;;13.00;99.90;;;;;;5013310;28;20187;-77
2023/06/22 06:26:32;;;;;;;14.32;4.80;;;12.90;99.90;;;;;;5012278;28;20225;-77
2023/06/22 06:29:04;;;;;;;9.20;4.50;;;12.80;99.90;;;;;;5011158;28;20676;-76
2023/06/22 06:31:36;;;;;;;8.65;3.95;;;12.70;99.90;;;;;;5015584;28;20340;-77
2023/06/22 06:34:09;;;;;;;8.70;3.97;;;12.70;99.90;;;;;;5011995;28;20700;-77
2023/06/22 06:36:40;;;;;;;10.43;4.32;;;12.70;99.90;;;;;;5016837;28;20568;-77
2023/06/22 06:39:11;;;;;;;7.38;4.22;;;12.70;99.90;;;;;;5014166;28;20322;-77
2023/06/22 06:41:42;;;;;;;7.80;4.40;;;12.60;99.90;;;;;;4997105;28;20196;-77
2023/06/22 06:44:13;;;;;;;6.97;3.97;;;12.60;99.90;;;;;;5008626;28;20207;-77
2023/06/22 06:46:44;;;;;;;8.48;4.10;;;12.60;99.90;;;;;;5013676;28;20199;-78
2023/06/22 06:49:17;;;;;;;10.80;4.50;;;12.60;99.90;;;;;;5016743;28;20202;-78
2023/06/22 06:51:48;;;;;;;10.38;4.35;;;12.60;99.90;;;;;;5013946;28;20210;-78
2023/06/22 06:54:20;;;;;;;8.50;4.30;;;12.50;99.90;;;;;;5007087;28;20196;-78
2023/06/22 06:56:51;;;;;;;7.22;4.40;;;12.50;99.90;;;;;;5010402;28;20195;-78
2023/06/22 06:59:22;;;;;;;11.93;4.88;;;12.50;99.90;;;;;;5015374;28;20241;-78
2023/06/22 07:01:53;;;;;;;8.18;4.82;;;12.50;99.90;;;;;;5017388;28;20237;-78
2023/06/22 07:04:26;;;;;;;8.73;4.80;;;12.40;99.90;;;;;;5015067;28;20199;-78
2023/06/22 07:06:58;;;;;;;10.38;5.00;;;12.40;99.90;;;;;;5015561;28;20229;-78
2023/06/22 07:09:29;;;;;;;11.45;5.25;;;12.40;99.90;;;;;;5005297;28;20286;-78
2023/06/22 07:12:00;;;;;;;8.52;5.18;;;12.40;99.90;;;;;;5014726;28;20286;-78
2023/06/22 07:14:31;;;;;;;7.35;5.18;;;12.40;99.90;;;;;;5014465;28;20195;-78
2023/06/22 07:17:02;;;;;;;11.70;5.05;;;12.40;99.90;;;;;;5013477;28;20261;-78
2023/06/22 07:19:35;;;;;;;8.23;5.00;;;12.40;99.90;;;;;;5015091;28;20241;-78
2023/06/22 07:22:06;;;;;;;10.25;5.43;;;12.40;99.90;;;;;;5012363;28;20195;-79
2023/06/22 07:24:37;;;;;;;10.65;5.50;;;12.40;99.90;;;;;;5014546;28;20206;-79
2023/06/22 07:27:11;;;;;;;13.30;5.32;;;12.30;99.90;;;;;;5012824;28;20213;-79
2023/06/22 07:29:43;;;;;;;9.23;5.30;;;12.30;99.90;;;;;;5013669;28;20234;-79
2023/06/22 07:32:14;;;;;;;9.18;5.72;;;12.30;99.90;;;;;;5014567;28;20709;-79
2023/06/22 07:34:47;;;;;;;9.93;5.32;;;12.30;99.90;;;;;;5013904;28;20194;-79
2023/06/22 07:37:18;;;;;;;9.82;5.28;;;12.30;99.90;;;;;;5015400;28;20199;-79
2023/06/22 07:39:50;;;;;;;9.75;5.68;;;12.30;99.90;;;;;;5013093;28;20198;-79
2023/06/22 07:42:21;;;;;;;9.93;5.68;;;12.30;99.90;;;;;;5009129;28;20202;-79
2023/06/22 07:44:52;;;;;;;8.32;5.70;;;12.30;99.90;;;;;;5013912;28;20191;-79
2023/06/22 07:47:25;;;;;;;10.35;5.43;;;12.30;99.90;;;;;;5013518;28;20195;-79
2023/06/22 07:49:58;;;;;;;8.57;5.65;;;12.30;99.90;;;;;;5014300;28;20199;-79
2023/06/22 07:52:29;;;;;;;12.85;6.43;;;12.30;99.90;;;;;;5002173;28;20287;-79
2023/06/22 07:55:00;;;;;;;10.15;5.80;;;12.20;99.90;;;;;;5014294;28;20296;-79
2023/06/22 07:57:34;;;;;;;9.82;5.68;;;12.20;99.90;;;;;;5013267;28;20670;-79
2023/06/22 08:00:12;;;;;;;9.30;6.18;;;12.20;99.90;;;;;;5011872;28;20682;-79
2023/06/22 08:02:44;;;;;;;10.48;6.00;;;12.20;99.90;;;;;;5005264;28;20562;-79
2023/06/22 08:05:17;;;;;;;9.23;5.63;;;12.20;99.90;;;;;;5013036;28;20217;-79
2023/06/22 08:07:49;;;;;;;9.95;5.85;;;12.20;99.90;;;;;;5006367;28;20201;-79
2023/06/22 08:10:20;;;;;;;8.48;5.43;;;12.20;99.90;;;;;;5024724;28;20195;-79
2023/06/22 08:12:52;;;;;;;10.70;6.13;;;12.10;99.90;;;;;;5008370;28;20203;-79
2023/06/22 08:15:23;;;;;;;9.40;6.30;;;12.20;99.90;;;;;;5013277;28;20199;-78
2023/06/22 08:17:54;;;;;;;12.73;6.60;;;12.10;99.90;;;;;;5008201;28;20636;-79
2023/06/22 08:20:27;;;;;;;12.15;7.03;;;12.10;99.90;;;;;;5013713;28;20223;-78
2023/06/22 08:23:05;;;;;;;9.68;6.47;;;12.10;99.90;;;;;;5013897;28;20195;-78
2023/06/22 08:25:36;;;;;;;10.82;6.78;;;12.10;99.90;;;;;;5004400;28;20198;-78
2023/06/22 08:28:07;;;;;;;11.63;6.60;;;12.10;99.90;;;;;;5013742;28;20202;-79
2023/06/22 08:30:38;;;;;;;13.88;8.38;;;12.10;99.90;;;;;;5013322;28;20202;-78
2023/06/22 08:33:10;;;;;;;11.35;7.13;;;12.10;99.90;;;;;;5012563;28;20681;-78
2023/06/22 08:35:43;;;;;;;12.20;6.78;;;12.10;99.90;;;;;;5012216;28;20203;-78
2023/06/22 08:38:15;;;;;;;13.52;6.65;;;12.10;99.90;;;;;;4996143;28;20212;-78
2023/06/22 08:40:46;;;;;;;12.68;6.88;;;12.10;99.90;;;;;;5010324;28;20608;-78
2023/06/22 08:43:17;;;;;;;12.18;6.20;;;12.10;99.90;;;;;;5011125;28;20199;-79
2023/06/22 08:45:48;;;;;;;12.55;6.03;;;12.10;99.90;;;;;;5014555;28;20292;-78
2023/06/22 08:48:19;;;;;;;14.20;6.95;;;12.10;99.90;;;;;;5013852;28;20199;-78
2023/06/22 08:50:52;;;;;;;14.60;6.47;;;12.00;99.90;;;;;;5012271;28;20213;-78
2023/06/22 08:53:24;;;;;;;9.43;6.45;;;12.00;99.90;;;;;;5013747;28;20198;-79
2023/06/22 08:55:55;;;;;;;13.60;6.75;;;12.00;99.90;;;;;;5013894;28;20198;-78
2023/06/22 08:58:26;;;;;;;11.77;6.57;;;11.90;99.90;;;;;;5013925;28;20593;-78
2023/06/22 09:01:01;;;;;;;14.20;7.05;;;11.90;99.90;;;;;;5011969;28;20199;-78
2023/06/22 09:03:32;;;;;;;11.00;6.38;;;11.90;99.90;;;;;;5012249;28;20194;-79
2023/06/22 09:06:05;;;;;;;11.80;7.10;;;11.90;99.90;;;;;;5014222;28;20199;-79
2023/06/22 09:08:37;;;;;;;11.05;6.70;;;11.80;99.90;;;;;;5013662;28;20191;-79
2023/06/22 09:11:08;;;;;;;10.57;6.45;;;11.80;99.90;;;;;;5012090;28;20213;-78
2023/06/22 09:13:39;;;;;;;10.15;5.93;;;11.80;99.90;;;;;;4998850;28;20195;-78
2023/06/22 09:16:10;;;;;;;12.30;6.70;;;11.80;99.90;;;;;;5010628;28;20664;-78
2023/06/22 09:18:41;;;;;;;11.63;6.05;;;11.80;99.90;;;;;;5013381;28;21060;-78
2023/06/22 09:21:14;;;;;;;11.60;6.32;;;11.70;99.90;;;;;;5006872;28;20890;-78
2023/06/22 09:23:50;;;;;;;9.93;6.30;;;11.70;99.90;;;;;;5008619;28;20581;-78
2023/06/22 09:26:21;;;;;;;11.43;6.15;;;11.80;99.90;;;;;;5008742;28;20224;-78
2023/06/22 09:28:52;;;;;;;11.45;6.70;;;11.80;99.90;;;;;;5012511;28;20668;-78
2023/06/22 09:31:25;;;;;;;11.85;5.93;;;11.80;99.90;;;;;;4999690;28;20278;-78
2023/06/22 09:33:57;;;;;;;11.48;6.32;;;11.80;99.90;;;;;;5011894;28;20253;-78
2023/06/22 09:36:30;;;;;;;10.82;6.35;;;11.80;99.90;;;;;;5012201;28;20211;-78
2023/06/22 09:39:05;;;;;;;12.88;6.82;;;11.80;99.90;;;;;;5011415;28;20214;-79
2023/06/22 09:41:37;;;;;;;11.35;6.63;;;11.80;99.90;;;;;;5010839;28;20572;-78
2023/06/22 09:44:08;;;;;;;10.18;6.65;;;11.80;99.90;;;;;;5012455;28;20199;-78
2023/06/22 09:46:39;;;;;;;11.75;6.88;;;11.80;99.90;;;;;;5011774;28;20202;-79
2023/06/22 09:49:10;;;;;;;14.52;6.75;;;11.80;99.90;;;;;;5008457;28;20198;-78
2023/06/22 09:51:43;;;;;;;14.10;6.50;;;11.70;99.90;;;;;;5012381;28;20248;-79
2023/06/22 09:54:14;;;;;;;12.48;6.50;;;11.70;99.90;;;;;;5010261;28;20203;-78
2023/06/22 09:56:45;;;;;;;12.25;6.10;;;11.70;99.90;;;;;;5008881;28;20642;-79
2023/06/22 09:59:16;;;;;;;14.25;7.20;;;11.70;99.90;;;;;;5012237;28;20229;-79
2023/06/22 10:01:48;;;;;;;14.02;7.45;;;11.70;99.90;;;;;;5011032;28;20222;-78
2023/06/22 10:04:19;;;;;;;13.32;6.97;;;11.70;99.90;;;;;;5011096;28;20198;-79
2023/06/22 10:06:52;;;;;;;13.68;7.47;;;11.70;99.90;;;;;;5014072;28;20210;-79
2023/06/22 10:09:23;;;;;;;10.60;6.97;;;11.70;99.90;;;;;;5008169;28;20205;-79
2023/06/22 10:11:54;;;;;;;14.93;7.43;;;11.70;99.90;;;;;;5015325;28;20248;-79
2023/06/22 10:14:27;;;;;;;12.15;6.93;;;11.70;99.90;;;;;;5016993;28;20201;-79
2023/06/22 10:16:58;;;;;;;11.30;6.70;;;11.70;99.90;;;;;;5016183;28;20195;-79
2023/06/22 10:19:29;;;;;;;16.55;7.38;;;11.60;99.90;;;;;;5014832;28;20252;-79
2023/06/22 10:22:02;;;;;;;17.20;7.22;;;11.70;99.90;;;;;;5015125;28;20205;-80
2023/06/22 10:24:33;;;;;;;13.80;6.38;;;11.60;99.90;;;;;;5014362;28;20209;-79
2023/06/22 10:27:04;;;;;;;10.40;6.65;;;11.60;99.90;;;;;;5015758;28;20206;-79
2023/06/22 10:29:35;;;;;;;9.98;6.53;;;11.60;99.90;;;;;;5015206;28;20685;-79
2023/06/22 10:32:07;;;;;;;14.77;7.10;;;11.60;99.90;;;;;;5013708;28;20217;-79
2023/06/22 10:34:38;;;;;;;14.25;7.25;;;11.70;99.90;;;;;;5014131;28;20199;-79
2023/06/22 10:37:11;;;;;;;13.50;6.93;;;11.60;99.90;;;;;;5015459;28;20203;-79
2023/06/22 10:39:42;;;;;;;13.75;7.30;;;11.70;99.90;;;;;;5005939;28;20226;-79
2023/06/22 10:42:13;;;;;;;16.45;7.63;;;11.70;99.90;;;;;;5014954;28;20205;-79
2023/06/22 10:44:44;;;;;;;13.50;7.68;;;11.70;99.90;;;;;;5019085;28;20196;-79
2023/06/22 10:47:15;;;;;;;15.30;8.48;;;11.60;99.90;;;;;;5019550;28;20206;-78
2023/06/22 10:49:47;;;;;;;14.73;9.05;;;11.70;99.90;;;;;;5013953;28;20199;-79
2023/06/22 10:52:20;;;;;;;19.00;8.98;;;11.60;99.90;;;;;;5014714;28;20206;-78
2023/06/22 10:54:51;;;;;;;18.02;9.25;;;11.60;99.90;;;;;;5013869;28;20650;-78
2023/06/22 10:57:22;;;;;;;13.25;8.20;;;11.50;99.90;;;;;;5012361;28;20202;-79
2023/06/22 10:59:53;;;;;;;14.05;8.23;;;11.50;99.90;;;;;;5009286;28;20226;-79
2023/06/22 11:02:24;;;;;;;12.15;7.25;;;11.40;99.90;;;;;;5008439;28;20211;-79
2023/06/22 11:04:55;;;;;;;13.48;8.13;;;11.40;99.90;;;;;;5012186;28;20202;-79
2023/06/22 11:07:29;;;;;;;17.00;8.57;;;11.40;99.90;;;;;;5003292;28;20195;-79
2023/06/22 11:10:00;;;;;;;14.35;8.88;;;11.40;99.90;;;;;;5012726;28;20425;-79
2023/06/22 11:12:31;;;;;;;12.98;9.27;;;11.40;99.90;;;;;;5013861;28;20199;-79
2023/06/22 11:15:02;;;;;;;13.90;8.75;;;11.40;99.90;;;;;;5014695;28;20202;-79
2023/06/22 11:17:33;;;;;;;13.63;8.55;;;11.40;99.90;;;;;;5012010;28;20302;-79
2023/06/22 11:20:10;;;;;;;14.85;8.23;;;11.30;99.90;;;;;;5014135;28;20250;-79
2023/06/22 11:22:43;;;;;;;13.93;7.93;;;11.40;99.90;;;;;;5015323;28;20202;-79
2023/06/22 11:25:14;;;;;;;11.98;7.97;;;11.40;99.90;;;;;;5015238;28;20681;-79
2023/06/22 11:27:46;;;;;;;11.27;8.15;;;11.40;99.90;;;;;;5015218;28;20203;-79
2023/06/22 11:30:17;;;;;;;15.90;8.70;;;11.40;99.90;;;;;;5014091;28;20195;-79
2023/06/22 11:32:48;;;;;;;13.70;8.27;;;11.40;99.90;;;;;;5011725;28;20222;-79
2023/06/22 11:35:19;;;;;;;13.20;7.93;;;11.40;99.90;;;;;;5015205;28;20213;-79
2023/06/22 11:37:52;;;;;;;14.88;8.68;;;11.50;99.90;;;;;;5014357;28;20207;-79
2023/06/22 11:40:23;;;;;;;14.38;8.35;;;11.50;99.90;;;;;;5012421;28;20247;-79
2023/06/22 11:42:54;;;;;;;13.48;8.68;;;11.50;99.90;;;;;;4997458;28;20200;-78
2023/06/22 11:45:26;;;;;;;15.23;8.45;;;11.50;99.90;;;;;;5014927;28;20195;-79
2023/06/22 11:47:57;;;;;;;14.88;8.20;;;11.50;99.90;;;;;;5015466;28;20187;-79
2023/06/22 11:50:29;;;;;;;11.55;7.88;;;11.40;99.90;;;;;;5015590;28;20195;-79
2023/06/22 11:53:03;;;;;;;12.18;7.40;;;11.50;99.90;;;;;;5015666;28;20201;-79
2023/06/22 11:55:34;;;;;;;14.27;7.50;;;11.40;99.90;;;;;;5015441;28;20211;-79
2023/06/22 11:58:06;;;;;;;13.02;7.50;;;11.40;99.90;;;;;;5015418;28;20658;-79
2023/06/22 12:00:37;;;;;;;13.50;7.25;;;11.40;99.90;;;;;;5014858;28;20241;-79
2023/06/22 12:03:09;;;;;;;11.57;7.22;;;11.40;99.90;;;;;;5015332;28;20199;-79
2023/06/22 12:05:40;;;;;;;14.43;7.30;;;11.40;99.90;;;;;;5015388;28;20678;-79
2023/06/22 12:08:13;;;;;;;12.25;7.88;;;11.40;99.90;;;;;;5015175;28;20194;-79
2023/06/22 12:10:44;;;;;;;13.00;7.50;;;11.30;99.90;;;;;;5012355;28;20266;-79
2023/06/22 12:13:15;;;;;;;9.35;7.05;;;11.20;99.90;;;;;;5014936;28;20202;-78
2023/06/22 12:15:47;;;;;;;11.50;7.55;;;11.20;99.90;;;;;;5014761;28;20191;-79
2023/06/22 12:18:20;;;;;;;11.25;7.55;;;11.30;99.90;;;;;;5014064;28;20227;-79
2023/06/22 12:20:51;;;;;;;11.70;7.63;;;11.20;99.90;;;;;;5003942;28;20748;-79
2023/06/22 12:23:25;;;;;;;10.77;7.60;;;11.20;99.90;;;;;;5010585;28;20203;-79
2023/06/22 12:25:56;;;;;;;10.25;7.28;;;11.20;99.90;;;;;;5000440;28;20203;-79
2023/06/22 12:28:27;;;;;;;12.65;7.25;;;11.20;99.90;;;;;;5010746;28;20206;-79
2023/06/22 12:30:58;;;;;;;13.13;7.53;;;11.20;99.90;;;;;;5007969;28;20633;-79
2023/06/22 12:33:30;;;;;;;9.75;7.15;;;11.20;99.90;;;;;;5015410;28;20191;-79
2023/06/22 12:36:01;;;;;;;14.65;7.75;;;11.20;99.90;;;;;;5018516;28;20218;-79
2023/06/22 12:38:34;;;;;;;11.40;7.30;;;11.30;99.90;;;;;;5014736;28;20202;-79
2023/06/22 12:41:05;;;;;;;11.07;7.00;;;11.20;99.90;;;;;;5014784;28;20219;-80
2023/06/22 12:43:36;;;;;;;11.85;7.43;;;11.30;99.90;;;;;;5014586;28;20187;-80
2023/06/22 12:46:07;;;;;;;12.63;7.32;;;11.30;99.90;;;;;;5014214;28;20195;-80
2023/06/22 12:48:42;;;;;;;12.65;6.88;;;11.30;99.90;;;;;;5014336;28;20199;-79
2023/06/22 12:51:13;;;;;;;11.55;7.03;;;11.20;99.90;;;;;;5014263;28;20282;-79
2023/06/22 12:53:46;;;;;;;14.43;7.55;;;11.30;99.90;;;;;;5014538;28;20198;-79
2023/06/22 12:56:17;;;;;;;9.30;6.40;;;11.30;99.90;;;;;;5014303;28;20194;-80
2023/06/22 12:58:48;;;;;;;8.48;6.85;;;11.30;99.90;;;;;;5014246;28;20191;-80
2023/06/22 13:01:19;;;;;;;11.65;6.80;;;11.30;99.90;;;;;;5014289;28;20690;-80
2023/06/22 13:03:50;;;;;;;10.98;6.63;;;11.30;99.90;;;;;;5014187;28;20262;-79
2023/06/22 13:06:21;;;;;;;12.02;7.45;;;11.30;99.90;;;;;;5014188;28;20198;-79
2023/06/22 13:08:54;;;;;;;11.30;7.15;;;11.30;99.90;;;;;;5013997;28;20207;-79